Data for 11/23/2009

Time Sea-Level Adjusted Pressure Absolute Pressure Temperature Relative Humidity Dew Point   
(mb) (inHg) (mb) (inHg) (C) (F) (%) (C) (F)
00:05 1016 30 845 24.95 -4.1 24.7 88 -5.8 21.6
00:10 1016 30 845 24.95 -3.7 25.4 84 -6.1 21
00:15 1016 30 845 24.95 -3.4 25.9 84 -5.6 21.9
00:20 1016 30 845 24.95 -3.4 26 83 -5.8 21.6
00:25 1016 30 845 24.95 -3.3 26 83 -5.8 21.6
00:30 1016 30 845 24.95 -3.4 25.9 81 -6.2 20.8
00:35 1016 30 845 24.95 -3 26.5 78 -6.4 20.5
00:40 1016 30 845 24.95 -3.1 26.5 76 -6.7 20
00:45 1016 30 845 24.95 -3.2 26.2 76 -6.9 19.5
00:50 1016 30 845 24.95 -3.4 26 74 -7.4 18.7
00:55 1016 30 845 24.95 -2.8 26.9 67 -8.1 17.5
01:00 1016 30 845 24.95 -2.2 28 65 -7.9 17.8
01:05 1016 30 845 24.95 -2 28.4 65 -7.7 18.1
01:10 1016 30 845 24.95 -1.7 28.9 63 -7.8 18
01:15 1016 30 845 24.95 -1.2 29.9 62 -7.6 18.3
01:20 1016 30 845 24.95 -1 30.2 62 -7.4 18.7
01:25 1016 30 845 24.95 -1.1 30.1 62 -7.5 18.4
01:30 1016 30 846 24.98 -1.1 30 63 -7.3 18.9
01:35 1016 30 845 24.95 -1.1 30 63 -7.4 18.7
01:40 1016 30 846 24.98 -1.1 30 63 -7.2 19
01:45 1016 30 846 24.98 -1.1 30 64 -7.1 19.2
01:50 1016 30 846 24.98 -1.1 30 65 -7 19.5
01:55 1017 30.03 846 24.98 -1.2 29.9 63 -7.3 18.8
02:00 1017 30.03 846 24.98 -1.2 29.9 64 -7.1 19.3
02:05 1017 30.03 846 24.98 -1.2 29.8 66 -6.7 19.9
02:10 1017 30.03 846 24.98 -1.5 29.3 67 -6.9 19.5
02:15 1017 30.03 846 24.98 -1.7 28.9 67 -7.1 19.3
02:20 1017 30.03 846 24.98 -1.7 29 67 -7 19.4
02:25 1017 30.03 846 24.98 -1.7 28.9 67 -7 19.4
02:30 1017 30.03 846 24.98 -1.8 28.8 68 -7 19.5
02:35 1017 30.03 846 24.98 -1.8 28.7 68 -7 19.5
02:40 1017 30.03 847 25.01 -1.8 28.7 69 -6.8 19.7
02:45 1017 30.03 847 25.01 -1.9 28.6 70 -6.7 20
02:50 1017 30.03 847 25.01 -2 28.3 71 -6.6 20.2
02:55 1017 30.03 847 25.01 -2.1 28.2 72 -6.4 20.4
03:00 1017 30.03 847 25.01 -2.1 28.2 72 -6.4 20.4
03:05 1018 30.06 847 25.01 -2.1 28.2 72 -6.5 20.3
03:10 1018 30.06 847 25.01 -2.1 28.3 72 -6.5 20.4
03:15 1018 30.06 847 25.01 -2.1 28.2 73 -6.3 20.6
03:20 1018 30.06 847 25.01 -2.2 28 73 -6.4 20.5
03:25 1018 30.06 847 25.01 -2.2 28 74 -6.3 20.6
03:30 1018 30.06 847 25.01 -2.3 27.9 74 -6.4 20.6
03:35 1018 30.06 847 25.01 -2.3 27.9 74 -6.3 20.6
03:40 1018 30.06 847 25.01 -2.3 27.8 74 -6.3 20.6
03:45 1018 30.06 847 25.01 -2.3 27.9 74 -6.3 20.7
03:50 1018 30.06 847 25.01 -2.3 27.9 74 -6.3 20.7
03:55 1018 30.06 847 25.01 -2.3 27.9 74 -6.3 20.7
04:00 1018 30.06 847 25.01 -2.4 27.7 75 -6.3 20.7
04:05 1018 30.06 847 25.01 -2.5 27.5 75 -6.3 20.7
04:10 1018 30.06 847 25.01 -2.5 27.5 75 -6.3 20.6
04:15 1018 30.06 847 25.01 -2.5 27.4 75 -6.3 20.6
04:20 1018 30.06 847 25.01 -2.8 26.9 76 -6.4 20.4
04:25 1018 30.06 847 25.01 -2.7 27.2 76 -6.4 20.5
04:30 1018 30.06 848 25.04 -2.5 27.5 75 -6.4 20.5
04:35 1018 30.06 847 25.01 -2.4 27.7 74 -6.4 20.6
04:40 1018 30.06 848 25.04 -2.4 27.7 73 -6.5 20.2
04:45 1018 30.06 848 25.04 -2.3 27.9 73 -6.5 20.4
04:50 1018 30.06 848 25.04 -2.2 28 72 -6.7 20
04:55 1018 30.06 848 25.04 -2.2 28 70 -7.1 19.3
05:00 1019 30.09 848 25.04 -2 28.4 67 -7.2 19
05:05 1019 30.09 848 25.04 -1.9 28.5 67 -7.3 18.9
05:10 1019 30.09 848 25.04 -1.8 28.7 67 -7.1 19.1
05:15 1019 30.09 848 25.04 -1.8 28.8 68 -6.9 19.5
05:20 1019 30.09 848 25.04 -1.9 28.6 69 -6.8 19.8
05:25 1019 30.09 848 25.04 -2 28.4 72 -6.3 20.6
05:30 1019 30.09 848 25.04 -2.1 28.2 73 -6.3 20.7
05:35 1019 30.09 848 25.04 -2.2 28.1 72 -6.5 20.3
05:40 1019 30.09 848 25.04 -2.2 28.1 69 -7.2 19.1
05:45 1019 30.09 848 25.04 -1.9 28.6 66 -7.4 18.7
05:50 1019 30.09 848 25.04 -1.7 28.9 65 -7.4 18.6
05:55 1019 30.09 849 25.07 -1.6 29.2 64 -7.5 18.4
06:00 1019 30.09 849 25.07 -1.5 29.3 64 -7.5 18.6
06:05 1019 30.09 849 25.07 -1.6 29.2 64 -7.5 18.5
06:10 1020 30.12 849 25.07 -1.5 29.3 64 -7.5 18.5
06:15 1020 30.12 849 25.07 -1.5 29.3 63 -7.5 18.4
06:20 1020 30.12 849 25.07 -1.5 29.3 64 -7.5 18.6
06:25 1020 30.12 849 25.07 -1.5 29.3 64 -7.4 18.6
06:30 1020 30.12 849 25.07 -1.5 29.3 64 -7.5 18.6
06:35 1020 30.12 849 25.07 -1.5 29.3 64 -7.5 18.5
06:40 1020 30.12 849 25.07 -1.4 29.5 63 -7.6 18.3
06:45 1020 30.12 850 25.1 -1.3 29.7 62 -7.6 18.4
06:50 1020 30.12 850 25.1 -1.2 29.8 62 -7.5 18.5
06:55 1020 30.12 850 25.1 -1.1 30 61 -7.7 18.2
07:00 1021 30.15 850 25.1 -1.1 30.1 61 -7.6 18.3
07:05 1021 30.15 850 25.1 -1.1 30.1 62 -7.5 18.4
07:10 1021 30.15 850 25.1 -1 30.2 60 -7.8 17.9
07:15 1021 30.15 850 25.1 -0.9 30.3 60 -7.8 18
07:20 1021 30.15 850 25.1 -0.9 30.4 60 -7.7 18.2
07:25 1021 30.15 850 25.1 -0.9 30.4 60 -7.7 18.1
07:30 1021 30.15 850 25.1 -0.9 30.4 61 -7.6 18.3
07:35 1021 30.15 850 25.1 -0.9 30.4 59 -7.8 18
07:40 1021 30.15 850 25.1 -0.8 30.5 60 -7.6 18.3
07:45 1021 30.15 850 25.1 -0.7 30.8 59 -7.8 18
07:50 1021 30.15 850 25.1 -0.7 30.8 60 -7.5 18.6
07:55 1021 30.15 850 25.1 -0.7 30.7 61 -7.5 18.6
08:00 1021 30.15 851 25.13 -0.7 30.8 60 -7.5 18.6
08:05 1022 30.18 851 25.13 -0.6 30.9 60 -7.4 18.6
08:10 1022 30.18 851 25.13 -0.5 31 60 -7.4 18.7
08:15 1022 30.18 851 25.13 -0.5 31.1 59 -7.6 18.3
08:20 1022 30.18 851 25.13 -0.4 31.3 59 -7.5 18.5
08:25 1022 30.18 851 25.13 -0.4 31.3 59 -7.4 18.6
08:30 1022 30.18 851 25.13 -0.4 31.2 59 -7.4 18.7
08:35 1022 30.18 851 25.13 -0.4 31.2 59 -7.4 18.7
08:40 1022 30.18 851 25.13 -0.4 31.3 59 -7.4 18.6
08:45 1022 30.18 851 25.13 -0.3 31.4 59 -7.5 18.6
08:50 1022 30.18 851 25.13 -0.3 31.4 59 -7.3 18.8
08:55 1022 30.18 851 25.13 -0.2 31.6 60 -7.1 19.3
09:00 1022 30.18 852 25.16 -0.1 31.8 60 -6.9 19.6
09:05 1022 30.18 852 25.16 -0.1 31.8 61 -6.7 19.9
09:10 1023 30.21 852 25.16 -0 31.9 61 -6.7 20
09:15 1023 30.21 852 25.16 0 32 58 -7.3 18.9
09:20 1023 30.21 852 25.16 0.1 32.2 57 -7.4 18.6
09:25 1023 30.21 852 25.16 0.2 32.4 56 -7.5 18.5
09:30 1023 30.21 852 25.16 0.2 32.4 56 -7.5 18.4
09:35 1023 30.21 852 25.16 0.1 32.2 59 -7 19.3
09:40 1023 30.21 852 25.16 0.1 32.1 57 -7.5 18.5
09:45 1023 30.21 852 25.16 0.1 32.1 56 -7.7 18.2
09:50 1023 30.21 852 25.16 0.2 32.4 55 -7.8 18
09:55 1023 30.21 852 25.16 0.2 32.4 57 -7.2 19
10:00 1023 30.21 852 25.16 0.2 32.3 56 -7.6 18.4
10:05 1023 30.21 852 25.16 0.2 32.4 56 -7.6 18.4
10:10 1023 30.21 852 25.16 0.3 32.6 55 -7.6 18.3
10:15 1023 30.21 852 25.16 0.2 32.4 57 -7.3 18.8
10:20 1023 30.21 852 25.16 0.2 32.3 56 -7.6 18.3
10:25 1023 30.21 852 25.16 0.2 32.4 56 -7.5 18.5
10:30 1023 30.21 852 25.16 0.2 32.4 57 -7.4 18.6
10:35 1023 30.21 852 25.16 0.3 32.5 56 -7.6 18.3
10:40 1023 30.21 853 25.19 0.4 32.6 56 -7.5 18.4
10:45 1023 30.21 853 25.19 0.5 32.8 54 -7.7 18.1
10:50 1023 30.21 853 25.19 0.5 33 55 -7.6 18.4
10:55 1023 30.21 853 25.19 0.7 33.2 55 -7.3 18.8
11:00 1023 30.21 853 25.19 0.8 33.4 55 -7.2 19
11:05 1024 30.24 853 25.19 0.9 33.6 57 -6.8 19.8
11:10 1024 30.24 853 25.19 0.8 33.5 56 -7 19.5
11:15 1024 30.24 853 25.19 0.9 33.6 56 -7 19.4
11:20 1024 30.24 853 25.19 1 33.9 55 -6.9 19.6
11:25 1023 30.21 853 25.19 1.2 34.2 53 -7.3 18.8
11:30 1024 30.24 853 25.19 1.4 34.4 53 -7.2 19.1
11:35 1024 30.24 853 25.19 1.5 34.7 52 -7.2 19
11:40 1023 30.21 853 25.19 1.6 34.9 53 -7 19.4
11:45 1023 30.21 853 25.19 1.6 34.9 51 -7.5 18.5
11:50 1023 30.21 853 25.19 1.7 35 51 -7.5 18.5
11:55 1023 30.21 853 25.19 1.9 35.5 52 -7 19.4
12:00 1023 30.21 853 25.19 1.8 35.3 51 -7.3 18.9
12:05 1024 30.24 853 25.19 1.8 35.3 53 -6.9 19.6
12:10 1024 30.24 853 25.19 2.1 35.7 51 -7.2 19.1
12:15 1024 30.24 853 25.19 2.1 35.8 51 -7 19.3
12:20 1024 30.24 853 25.19 2.2 35.9 50 -7.3 18.8
12:25 1024 30.24 853 25.19 2.2 36 49 -7.4 18.6
12:30 1024 30.24 853 25.19 2.2 35.9 50 -7.3 18.8
12:35 1024 30.24 853 25.19 2.2 36 49 -7.3 18.8
12:40 1024 30.24 853 25.19 2.2 35.9 49 -7.6 18.4
12:45 1024 30.24 853 25.19 2.1 35.8 50 -7.3 18.8
12:50 1024 30.24 853 25.19 2.1 35.8 51 -7 19.3
12:55 1024 30.24 853 25.19 2.1 35.7 51 -7.1 19.3
13:00 1024 30.24 853 25.19 2 35.7 51 -7 19.4
13:05 1024 30.24 853 25.19 2.1 35.8 51 -6.9 19.5
13:10 1024 30.24 853 25.19 2.2 35.9 52 -6.8 19.8
13:15 1024 30.24 853 25.19 2.1 35.8 52 -6.7 20
13:20 1023 30.21 853 25.19 2.1 35.8 53 -6.5 20.3
13:25 1023 30.21 853 25.19 2.2 36 53 -6.4 20.5
13:30 1023 30.21 853 25.19 2.2 36 54 -6.1 21
13:35 1023 30.21 853 25.19 2.2 36 51 -6.8 19.7
13:40 1023 30.21 853 25.19 2.2 36 52 -6.7 20
13:45 1024 30.24 853 25.19 2.3 36.1 51 -6.8 19.8
13:50 1024 30.24 853 25.19 2.2 35.9 50 -7.3 18.9
13:55 1023 30.21 853 25.19 2.1 35.8 49 -7.5 18.5
14:00 1024 30.24 853 25.19 2.1 35.8 49 -7.5 18.5
14:05 1024 30.24 853 25.19 2.2 35.9 49 -7.3 18.8
14:10 1024 30.24 853 25.19 2.1 35.9 48 -7.8 17.9
14:15 1024 30.24 853 25.19 2.1 35.7 48 -7.9 17.8
14:20 1024 30.24 853 25.19 2 35.7 49 -7.7 18.2
14:25 1024 30.24 853 25.19 1.9 35.4 49 -7.7 18.1
14:30 1024 30.24 853 25.19 1.9 35.4 50 -7.6 18.4
14:35 1024 30.24 853 25.19 2 35.5 50 -7.5 18.5
14:40 1024 30.24 853 25.19 1.9 35.5 50 -7.4 18.6
14:45 1024 30.24 853 25.19 1.8 35.2 49 -7.8 17.9
14:50 1024 30.24 853 25.19 1.7 35.1 51 -7.3 18.9
14:55 1024 30.24 853 25.19 1.7 35 50 -7.7 18.2
15:00 1024 30.24 853 25.19 1.6 34.8 51 -7.4 18.6
15:05 1024 30.24 853 25.19 1.5 34.7 52 -7.4 18.7
15:10 1024 30.24 853 25.19 1.6 34.9 50 -7.7 18.2
15:15 1024 30.24 853 25.19 1.5 34.8 51 -7.6 18.3
15:20 1024 30.24 853 25.19 1.5 34.7 52 -7.3 18.9
15:25 1024 30.24 853 25.19 1.4 34.5 52 -7.4 18.6
15:30 1024 30.24 853 25.19 1.4 34.5 51 -7.6 18.3
15:35 1024 30.24 853 25.19 1.4 34.5 53 -7.3 18.9
15:40 1024 30.24 853 25.19 1.3 34.3 53 -7.2 19.1
15:45 1024 30.24 853 25.19 1.2 34.2 53 -7.4 18.6
15:50 1024 30.24 853 25.19 1.3 34.3 51 -7.7 18.2
15:55 1024 30.24 853 25.19 1.3 34.4 50 -8 17.6
16:00 1024 30.24 853 25.19 1.4 34.6 50 -7.9 17.8
16:05 1024 30.24 853 25.19 1.4 34.4 50 -8 17.6
16:10 1024 30.24 853 25.19 1.3 34.4 50 -8 17.6
16:15 1024 30.24 853 25.19 1.4 34.5 50 -7.8 17.9
16:20 1024 30.24 853 25.19 1.5 34.7 50 -7.9 17.8
16:25 1024 30.24 853 25.19 1.5 34.6 51 -7.7 18.1
16:30 1024 30.24 853 25.19 1.4 34.6 49 -8.1 17.5
16:35 1024 30.24 853 25.19 1.3 34.4 50 -8 17.6
16:40 1024 30.24 853 25.19 1.1 34 50 -8.1 17.5
16:45 1024 30.24 853 25.19 1 33.7 52 -7.9 17.8
16:50 1024 30.24 853 25.19 0.9 33.6 51 -8.2 17.2
16:55 1024 30.24 853 25.19 0.9 33.7 50 -8.3 17.1
17:00 1024 30.24 853 25.19 0.8 33.5 52 -7.8 17.9
17:05 1024 30.24 853 25.19 0.7 33.2 55 -7.3 18.8
17:10 1024 30.24 853 25.19 0.4 32.8 56 -7.3 18.8
17:15 1024 30.24 854 25.22 0.4 32.7 55 -7.7 18.1
17:20 1024 30.24 854 25.22 0.4 32.7 54 -7.8 18
17:25 1024 30.24 854 25.22 0.5 32.8 53 -8 17.6
17:30 1025 30.27 854 25.22 0.4 32.7 52 -8.3 17
17:35 1025 30.27 854 25.22 0.3 32.5 52 -8.5 16.7
17:40 1025 30.27 854 25.22 -0 32 53 -8.4 17
17:45 1025 30.27 854 25.22 -0.4 31.2 55 -8.4 16.8
17:50 1025 30.27 854 25.22 -0.8 30.6 54 -9 15.7
17:55 1025 30.27 854 25.22 -0.9 30.4 53 -9.2 15.4
18:00 1025 30.27 854 25.22 -0.9 30.4 53 -9.2 15.4
18:05 1025 30.27 854 25.22 -1.1 30.1 55 -9.1 15.7
18:10 1025 30.27 854 25.22 -1.2 29.8 55 -9.2 15.5
18:15 1025 30.27 854 25.22 -1.3 29.7 53 -9.6 14.7
18:20 1025 30.27 854 25.22 -1.2 29.9 54 -9.3 15.3
18:25 1025 30.27 854 25.22 -1.4 29.6 55 -9.4 15.1
18:30 1025 30.27 854 25.22 -2.3 27.9 58 -9.4 15.2
18:35 1025 30.27 854 25.22 -3 26.6 59 -10 14
18:40 1025 30.27 854 25.22 -2.9 26.7 56 -10.5 13.2
18:45 1025 30.27 854 25.22 -2.5 27.5 57 -10 14
18:50 1025 30.27 854 25.22 -2.4 27.7 56 -10 13.9
18:55 1025 30.27 854 25.22 -2.4 27.7 57 -9.7 14.5
19:00 1025 30.27 854 25.22 -2.7 27.2 57 -10 14.1
19:05 1025 30.27 854 25.22 -3.3 26 60 -10 14
19:10 1025 30.27 854 25.22 -3.5 25.7 61 -10 14
19:15 1025 30.27 854 25.22 -3.1 26.5 61 -9.6 14.7
19:20 1025 30.27 854 25.22 -3 26.6 61 -9.5 14.9
19:25 1025 30.27 854 25.22 -3.1 26.5 62 -9.4 15.1
19:30 1025 30.27 854 25.22 -3.4 25.9 62 -9.6 14.8
19:35 1025 30.27 854 25.22 -3.6 25.5 61 -10.1 13.7
19:40 1025 30.27 854 25.22 -3.8 25.2 63 -9.9 14.2
19:45 1025 30.27 854 25.22 -4 24.9 66 -9.5 14.9
19:50 1025 30.27 854 25.22 -3.8 25.1 64 -9.7 14.6
19:55 1025 30.27 854 25.22 -3.6 25.5 64 -9.6 14.8
20:00 1025 30.27 854 25.22 -3.7 25.4 63 -9.7 14.6
20:05 1025 30.27 854 25.22 -3.6 25.5 63 -9.6 14.7
20:10 1025 30.27 854 25.22 -3.3 26.1 61 -9.7 14.5
20:15 1025 30.27 854 25.22 -2.8 26.9 60 -9.6 14.7
20:20 1025 30.27 854 25.22 -2.7 27.2 59 -9.7 14.6
20:25 1025 30.27 854 25.22 -2.5 27.6 58 -9.6 14.8
20:30 1025 30.27 854 25.22 -2.4 27.7 58 -9.6 14.8
20:35 1025 30.27 854 25.22 -2.3 27.9 58 -9.6 14.8
20:40 1025 30.27 854 25.22 -2.3 27.8 56 -9.8 14.3
20:45 1025 30.27 854 25.22 -2.2 28 56 -9.9 14.2
20:50 1025 30.27 854 25.22 -2.4 27.7 57 -9.8 14.4
20:55 1025 30.27 854 25.22 -2.4 27.6 57 -9.8 14.4
21:00 1025 30.27 854 25.22 -2.4 27.6 57 -9.7 14.5
21:05 1025 30.27 854 25.22 -2.3 27.9 58 -9.5 14.9
21:10 1025 30.27 854 25.22 -2.4 27.7 57 -9.8 14.4
21:15 1025 30.27 854 25.22 -2.4 27.8 58 -9.6 14.7
21:20 1025 30.27 854 25.22 -2.4 27.6 57 -9.8 14.3
21:25 1025 30.27 854 25.22 -2.7 27.1 59 -9.6 14.7
21:30 1025 30.27 854 25.22 -3.5 25.6 62 -9.9 14.2
21:35 1025 30.27 854 25.22 -4.2 24.4 63 -10.2 13.7
21:40 1025 30.27 854 25.22 -4 24.9 63 -10 14
21:45 1025 30.27 854 25.22 -3.9 25 63 -10 14
21:50 1025 30.27 854 25.22 -4 24.8 62 -10.2 13.6
21:55 1025 30.27 854 25.22 -4.1 24.7 62 -10.3 13.5
22:00 1025 30.27 854 25.22 -4.1 24.7 62 -10.4 13.3
22:05 1025 30.27 854 25.22 -4.3 24.3 61 -10.7 12.7
22:10 1025 30.27 854 25.22 -3.9 25 60 -10.5 13.1
22:15 1025 30.27 854 25.22 -4.2 24.4 62 -10.4 13.2
22:20 1025 30.27 854 25.22 -4.5 23.9 64 -10.3 13.4
22:25 1025 30.27 854 25.22 -4.5 23.8 61 -11 12.3
22:30 1025 30.27 854 25.22 -4.6 23.8 60 -11.1 12
22:35 1025 30.27 854 25.22 -4.6 23.8 60 -11.3 11.7
22:40 1025 30.27 854 25.22 -4.5 24 60 -11.2 11.9
22:45 1025 30.27 854 25.22 -4.4 24.1 60 -11 12.1
22:50 1025 30.27 854 25.22 -4.4 24 60 -11.1 12
22:55 1025 30.27 854 25.22 -4.4 24.1 60 -11.1 12
23:00 1025 30.27 854 25.22 -4.4 24 60 -11.1 11.9
23:05 1025 30.27 854 25.22 -4.8 23.4 61 -11.1 12
23:10 1025 30.27 854 25.22 -4.9 23.1 61 -11.4 11.4
23:15 1025 30.27 854 25.22 -4.5 24 62 -10.7 12.7
23:20 1025 30.27 854 25.22 -4.4 24 61 -10.8 12.5
23:25 1025 30.27 854 25.22 -4.8 23.4 62 -11.1 12.1
23:30 1025 30.27 854 25.22 -5 23.1 62 -11.2 11.9
23:35 1025 30.27 854 25.22 -4.9 23.1 61 -11.3 11.6
23:40 1025 30.27 854 25.22 -4.9 23.3 60 -11.4 11.5
23:45 1025 30.27 854 25.22 -4.8 23.4 61 -11.3 11.7
23:50 1025 30.27 854 25.22 -4.7 23.5 63 -10.7 12.7
23:55 1025 30.27 854 25.22 -5.2 22.7 64 -10.9 12.4
24:00 1025 30.27 854 25.22 -5.4 22.4 64 -11.2 11.9